KSCK/SCK METAR and TAF weather

Enter ICAO airport designator
Station Type Date Time Source
KSCK METAR 2021/04/18 01:55 UTC NOAA

KSCK 180155Z 34012KT 10SM CLR 27/M05 A2993 RMK AO2 SLP133 T02721050


Station Type Date Time Source
KSCK Decoded METAR 2021/04/18 01:55 UTC NOAA

STOCKTON METROPOLITAN AIRPORT , CA, United States (KSCK) 37-54N 121-14W 10M
Apr 17, 2021 - 09:55 PM EDT / 2021.04.18 0155 UTC
Wind: from the NNW (340 degrees) at 14 MPH (12 KT):0
Visibility: 10 mile(s):0
Sky conditions: clear
Temperature: 81.0 F (27.2 C)
Dew Point: 23.0 F (-5.0 C)
Relative Humidity: 11%
Pressure (altimeter): 29.93 in. Hg (1013 hPa)
ob: KSCK 180155Z 34012KT 10SM CLR 27/M05 A2993 RMK AO2 SLP133 T02721050
cycle: 2

Station Type Date Time Source
KSCK TAF 2021/04/17 18:24 UTC NOAA

TAF KSCK 171721Z 1718/1818 33009KT P6SM SKC
TEMPO 1722/1801 31012G18KT
FM180300 31008KT P6SM SKC

Example: see airport list